This is the latest recevied weather packets stored in our database for station/object N5CNB. If no packets are shown the sender has not sent any weather packets the latest 10 day(s).
| Time | Temp. | Humidity | Pressure | Rain* | Wind** | Luminosity | Snow |
|---|---|---|---|---|---|---|---|
| 1777872642 | 16.11° C | 79% | 1018.3 hPa | 0 mm | - | - | - |
| 1777871726 | 16.11° C | 79% | 1018.5 hPa | 0 mm | - | - | - |
| 1777870828 | 16.11° C | 79% | 1018.8 hPa | 0 mm | - | - | - |
| 1777869925 | 16.11° C | 78% | 1019 hPa | 0 mm | - | - | - |
| 1777869026 | 16.67° C | 77% | 1018.9 hPa | 0 mm | - | - | - |
| 1777868125 | 16.67° C | 75% | 1018.9 hPa | 0 mm | - | - | - |
| 1777867226 | 17.22° C | 74% | 1018.9 hPa | 0 mm | - | - | - |
| 1777866344 | 17.78° C | 72% | 1019.2 hPa | 0 mm | - | - | - |
| 1777865421 | 17.78° C | 71% | 1019.1 hPa | 0 mm | - | - | - |
| 1777864503 | 18.33° C | 69% | 1018.6 hPa | 0 mm | - | - | - |
| 1777863625 | 18.89° C | 67% | 1018.7 hPa | 0 mm | - | - | - |
| 1777862713 | 19.44° C | 66% | 1018.5 hPa | 0 mm | - | - | - |
| 1777861820 | 19.44° C | 67% | 1018.3 hPa | 0 mm | - | - | - |
| 1777860922 | 19.44° C | 69% | 1018.2 hPa | 0 mm | - | - | - |
| 1777860006 | 19.44° C | 69% | 1018.2 hPa | 0 mm | - | - | - |
| 1777859120 | 19.44° C | 68% | 1018.1 hPa | 0 mm | - | - | - |
| 1777858211 | 18.89° C | 69% | 1018 hPa | 0 mm | - | - | - |
| 1777857315 | 20° C | 64% | 1017.9 hPa | 0 mm | - | - | - |
| 1777856422 | 21.67° C | 59% | 1017.7 hPa | 0 mm | - | - | - |
| 1777855508 | 22.78° C | 52% | 1017.9 hPa | 0 mm | - | - | - |
| 1777854619 | 23.89° C | 49% | 1018 hPa | 0 mm | - | - | - |
| 1777853713 | 23.89° C | 46% | 1018.1 hPa | 0 mm | - | - | - |
| 1777852818 | 23.89° C | 44% | 1018.2 hPa | 0 mm | - | - | - |
| 1777851935 | 24.44° C | 44% | 1018.1 hPa | 0 mm | - | - | - |
| 1777851005 | 24.44° C | 41% | 1018 hPa | 0 mm | - | - | - |
* Rain latest hour (hover to see other rain measurements)
** Current wind speed in m/s (hover to see current wind gust speed)